sensor_id;sensor_type;location;lat;lon;timestamp;P1;durP1;ratioP1;P2;durP2;ratioP2
75216;SDS011;63800;51.972;5.682;2022-10-28T20:27:10;16.75;;;8.13;;
75216;SDS011;63800;51.972;5.682;2022-10-28T20:29:36;17.48;;;7.70;;
75216;SDS011;63800;51.972;5.682;2022-10-28T20:32:01;17.13;;;6.80;;
75216;SDS011;63800;51.972;5.682;2022-10-28T20:34:29;18.50;;;8.07;;
75216;SDS011;63800;51.972;5.682;2022-10-28T20:36:55;16.30;;;6.25;;
75216;SDS011;63800;51.972;5.682;2022-10-28T20:39:20;17.35;;;5.95;;
75216;SDS011;63800;51.972;5.682;2022-10-28T20:41:46;13.10;;;5.60;;
75216;SDS011;63800;51.972;5.682;2022-10-28T20:44:12;15.93;;;7.00;;
75216;SDS011;63800;51.972;5.682;2022-10-28T20:46:38;12.80;;;6.68;;
75216;SDS011;63800;51.972;5.682;2022-10-28T20:49:04;16.45;;;6.88;;
75216;SDS011;63800;51.972;5.682;2022-10-28T20:51:30;20.13;;;8.20;;
75216;SDS011;63800;51.972;5.682;2022-10-28T20:53:57;17.23;;;7.13;;
75216;SDS011;63800;51.972;5.682;2022-10-28T20:56:23;18.33;;;8.07;;
75216;SDS011;63800;51.972;5.682;2022-10-28T20:58:50;21.77;;;8.90;;
75216;SDS011;63800;51.972;5.682;2022-10-28T21:01:20;20.33;;;9.15;;
75216;SDS011;63800;51.972;5.682;2022-10-28T21:03:48;23.48;;;10.57;;
75216;SDS011;63800;51.972;5.682;2022-10-28T21:06:14;19.48;;;7.90;;
75216;SDS011;63800;51.972;5.682;2022-10-28T21:08:42;17.15;;;7.20;;
75216;SDS011;63800;51.972;5.682;2022-10-28T21:11:09;21.85;;;6.45;;
75216;SDS011;63800;51.972;5.682;2022-10-28T21:13:36;15.30;;;6.28;;
75216;SDS011;63800;51.972;5.682;2022-10-28T21:16:02;12.57;;;5.38;;
75216;SDS011;63800;51.972;5.682;2022-10-28T21:18:29;17.50;;;7.25;;
75216;SDS011;63800;51.972;5.682;2022-10-28T21:20:55;19.35;;;6.47;;
75216;SDS011;63800;51.972;5.682;2022-10-28T21:23:21;17.02;;;6.13;;
75216;SDS011;63800;51.972;5.682;2022-10-28T21:25:51;14.23;;;6.03;;
75216;SDS011;63800;51.972;5.682;2022-10-28T21:28:17;15.18;;;5.97;;
75216;SDS011;63800;51.972;5.682;2022-10-28T21:30:43;12.50;;;5.72;;
75216;SDS011;63800;51.972;5.682;2022-10-28T21:33:08;17.20;;;6.13;;
75216;SDS011;63800;51.972;5.682;2022-10-28T21:35:35;15.43;;;5.93;;
75216;SDS011;63800;51.972;5.682;2022-10-28T21:38:01;17.58;;;6.13;;
75216;SDS011;63800;51.972;5.682;2022-10-28T21:40:26;17.85;;;6.53;;
75216;SDS011;63800;51.972;5.682;2022-10-28T21:42:55;20.20;;;6.22;;
75216;SDS011;63800;51.972;5.682;2022-10-28T21:45:20;13.02;;;5.55;;
75216;SDS011;63800;51.972;5.682;2022-10-28T21:47:48;15.88;;;5.85;;
75216;SDS011;63800;51.972;5.682;2022-10-28T21:50:13;16.40;;;6.40;;
75216;SDS011;63800;51.972;5.682;2022-10-28T21:52:39;19.85;;;7.15;;
75216;SDS011;63800;51.972;5.682;2022-10-28T21:55:05;18.52;;;5.70;;
75216;SDS011;63800;51.972;5.682;2022-10-28T21:57:30;17.40;;;6.00;;
75216;SDS011;63800;51.972;5.682;2022-10-28T21:59:56;13.35;;;5.45;;
75216;SDS011;63800;51.972;5.682;2022-10-28T22:02:21;16.33;;;5.72;;
75216;SDS011;63800;51.972;5.682;2022-10-28T22:04:47;15.57;;;6.20;;
75216;SDS011;63800;51.972;5.682;2022-10-28T22:07:12;18.58;;;6.35;;
75216;SDS011;63800;51.972;5.682;2022-10-28T22:09:37;17.65;;;6.57;;
75216;SDS011;63800;51.972;5.682;2022-10-28T22:12:03;15.52;;;6.00;;
75216;SDS011;63800;51.972;5.682;2022-10-28T22:14:28;16.83;;;6.70;;
75216;SDS011;63800;51.972;5.682;2022-10-28T22:16:54;17.13;;;6.78;;
75216;SDS011;63800;51.972;5.682;2022-10-28T22:19:19;17.20;;;5.60;;
75216;SDS011;63800;51.972;5.682;2022-10-28T22:21:45;12.75;;;3.85;;
75216;SDS011;63800;51.972;5.682;2022-10-28T22:24:10;17.90;;;4.35;;
75216;SDS011;63800;51.972;5.682;2022-10-28T22:26:36;18.90;;;4.45;;
75216;SDS011;63800;51.972;5.682;2022-10-28T22:29:01;13.50;;;4.82;;
75216;SDS011;63800;51.972;5.682;2022-10-28T22:31:28;15.95;;;4.55;;
75216;SDS011;63800;51.972;5.682;2022-10-28T22:33:55;18.05;;;4.60;;
75216;SDS011;63800;51.972;5.682;2022-10-28T22:36:22;16.67;;;4.57;;
75216;SDS011;63800;51.972;5.682;2022-10-28T22:38:49;11.25;;;4.00;;
75216;SDS011;63800;51.972;5.682;2022-10-28T22:41:22;14.23;;;4.72;;
75216;SDS011;63800;51.972;5.682;2022-10-28T22:43:53;14.00;;;4.68;;
75216;SDS011;63800;51.972;5.682;2022-10-28T22:46:20;14.60;;;4.82;;
75216;SDS011;63800;51.972;5.682;2022-10-28T22:48:47;20.38;;;4.90;;
75216;SDS011;63800;51.972;5.682;2022-10-28T22:51:12;10.70;;;4.35;;
75216;SDS011;63800;51.972;5.682;2022-10-28T22:53:38;14.68;;;4.50;;
75216;SDS011;63800;51.972;5.682;2022-10-28T22:56:05;11.23;;;4.55;;
75216;SDS011;63800;51.972;5.682;2022-10-28T22:58:31;12.52;;;4.45;;
75216;SDS011;63800;51.972;5.682;2022-10-28T23:01:04;11.20;;;4.28;;
75216;SDS011;63800;51.972;5.682;2022-10-28T23:03:34;14.25;;;5.20;;
75216;SDS011;63800;51.972;5.682;2022-10-28T23:06:01;14.30;;;5.93;;
75216;SDS011;63800;51.972;5.682;2022-10-28T23:08:26;12.40;;;5.15;;
75216;SDS011;63800;51.972;5.682;2022-10-28T23:10:52;9.70;;;5.15;;
75216;SDS011;63800;51.972;5.682;2022-10-28T23:13:17;15.40;;;4.55;;
75216;SDS011;63800;51.972;5.682;2022-10-28T23:15:42;10.38;;;4.32;;
75216;SDS011;63800;51.972;5.682;2022-10-28T23:18:08;13.77;;;5.10;;
75216;SDS011;63800;51.972;5.682;2022-10-28T23:20:34;17.83;;;5.35;;
75216;SDS011;63800;51.972;5.682;2022-10-28T23:23:01;14.07;;;5.03;;
75216;SDS011;63800;51.972;5.682;2022-10-28T23:25:26;18.23;;;5.70;;
75216;SDS011;63800;51.972;5.682;2022-10-28T23:27:52;16.48;;;4.57;;
75216;SDS011;63800;51.972;5.682;2022-10-28T23:30:17;15.07;;;4.82;;
75216;SDS011;63800;51.972;5.682;2022-10-28T23:32:43;12.25;;;4.82;;
75216;SDS011;63800;51.972;5.682;2022-10-28T23:35:08;12.35;;;4.18;;
75216;SDS011;63800;51.972;5.682;2022-10-28T23:37:33;12.80;;;4.40;;
75216;SDS011;63800;51.972;5.682;2022-10-28T23:39:59;13.88;;;4.60;;
75216;SDS011;63800;51.972;5.682;2022-10-28T23:42:24;17.13;;;4.43;;
75216;SDS011;63800;51.972;5.682;2022-10-28T23:44:50;18.17;;;5.03;;
75216;SDS011;63800;51.972;5.682;2022-10-28T23:47:15;14.25;;;5.07;;
75216;SDS011;63800;51.972;5.682;2022-10-28T23:49:40;14.35;;;5.40;;
75216;SDS011;63800;51.972;5.682;2022-10-28T23:52:06;18.48;;;5.70;;
75216;SDS011;63800;51.972;5.682;2022-10-28T23:54:32;13.18;;;5.22;;
75216;SDS011;63800;51.972;5.682;2022-10-28T23:56:57;17.77;;;6.03;;
75216;SDS011;63800;51.972;5.682;2022-10-28T23:59:22;14.05;;;5.75;;
